Flugplatz Hoppstädten-Weiersbach

Für EDRH sind keine METAR/TAF Berichte vorhanden.
Es werden die Flugwettermeldungen vom Flugplatz Ramstein Air Base in 35 km Entfernung angezeigt.

Bericht für ETAR

vom 25.01. um 21:56 UTC

Wind 3 kt aus 80°

Sichtweite 600 m

Nebel

Temperatur 0.9°C

Taupunkt 0.9°C

Luftfeuchtigkeit 100%

Luftdruck 1020 hPa

ETAR 252156Z 08003KT 0600 R26/0600V0700 FG VV001 01/01 A3013 RMK AO2A SLP219 T00090009 FZRANO

Prognose für ETAR

vom 25.01. um 00:00 UTC

Zwischen 00:00 UTC und 00:00 UTC

variable Windrichtung mit 6 kt

Sichtweite 600 m

Code: FZFG

bedeckt in 100 ft


Zwischen 00:00 und 00:00 UTC übergehend zu

variable Windrichtung mit 6 kt

Sichtweite 600 m

Code: FZFG

bedeckt in 200 ft


Am 26.01. zwischen 00:00 und 00:00 UTC übergehend zu

Wind 9 kt aus 180°

Sichtweite 3200 m

feuchter Dunst

bedeckt in 500 ft


Am 26.01. zwischen 00:00 und 00:00 UTC übergehend zu

Wind 9 kt aus 180°

Sichtweite 8000 m

feuchter Dunst

bedeckt in 700 ft


Am 26.01. zwischen 00:00 und 00:00 UTC übergehend zu

variable Windrichtung mit 6 kt

Sichtweite 3200 m

feuchter Dunst

bedeckt in 500 ft

TAF ETAR 251804Z 2518/2624 VRB06KT 0600 FZFG OVC001 630001 QNH3020INS BECMG 2519/2520 VRB06KT 0600 FZFG OVC002 630001 QNH3008INS BECMG 2611/2612 18009KT 3200 BR OVC005 QNH3012INS BECMG 2612/2613 18009KT 8000 BR OVC007 QNH3005INS BECMG 2617/2618 VRB06KT 3200 BR OVC005 QNH3001INS TX05/2613Z TNM02/2603Z
Impressum